Time;durP1;ratioP1;P1;durP2;ratioP2;P2;SDS_P1;SDS_P2;PMS_P1;PMS_P2;Temp;Humidity;BMP_temperature;BMP_pressure;BME280_temperature;BME280_humidity;BME280_pressure;Samples;Min_cycle;Max_cycle;Signal;HPM_P1;HPM_P2
2023/09/04 00:03:22;;;;;;;5.20;4.80;;;;;;;-144.30;93.60;84666.94;5107580;28;20218;-56
2023/09/04 00:06:32;;;;;;;;;;;;;;;;;;;;;
2023/09/04 00:09:29;;;;;;;5.40;4.93;;;;;;;-144.30;93.75;84694.75;5100805;28;20710;-57
2023/09/04 00:12:12;;;;;;;4.75;4.45;;;;;;;-144.30;93.91;84623.22;5111117;28;20248;-57
2023/09/04 00:24:20;;;;;;;3.90;3.60;;;;;;;-144.30;90.62;84641.09;5111867;28;20226;-56
2023/09/04 00:27:19;;;;;;;5.03;3.58;;;;;;;-144.30;91.05;84631.16;5111426;28;20202;-50
2023/09/04 00:30:03;;;;;;;6.25;4.70;;;;;;;-144.30;91.28;84635.13;5111920;28;20194;-50
2023/09/04 00:33:18;;;;;;;5.55;5.15;;;;;;;-144.30;91.70;84633.16;5112611;28;20664;-55
2023/09/04 00:36:12;;;;;;;5.90;5.40;;;;;;;-144.30;91.89;84641.09;5112715;28;20615;-56
2023/09/04 00:39:12;;;;;;;5.40;4.97;;;;;;;-144.30;92.95;84619.22;5112550;28;20608;-51
2023/09/04 00:42:22;;;;;;;5.78;5.38;;;;;;;-144.30;92.48;84611.28;5107187;28;20580;-51
2023/09/04 00:54:38;;;;;;;8.18;5.20;;;;;;;-144.30;92.67;84662.97;5108646;28;20203;-49
2023/09/04 01:01:10;;;;;;;5.15;4.80;;;;;;;-144.30;91.67;84645.06;5105733;28;20226;-50
2023/09/04 01:24:11;;;;;;;5.13;4.75;;;;;;;-144.30;91.60;84684.81;4311243;27;23624594;-51
2023/09/04 01:27:30;;;;;;;5.00;4.70;;;;;;;-144.30;90.97;84680.84;5127595;28;20204;-57
2023/09/04 01:37:00;;;;;;;5.55;5.15;;;;;;;-144.30;91.13;84660.97;5125554;28;20689;-57
2023/09/04 01:53:06;;;;;;;9.68;7.28;;;;;;;-144.30;91.04;84629.19;5126849;28;20213;-51
2023/09/04 01:56:25;;;;;;;6.10;5.70;;;;;;;-144.30;90.58;84645.06;5124942;28;20542;-57
2023/09/04 02:08:39;;;;;;;5.70;5.25;;;;;;;-144.30;90.40;84664.94;5121245;28;20198;-50
2023/09/04 02:14:31;;;;;;;;;;;;;;;;;;;;;
2023/09/04 02:23:37;;;;;;;5.47;5.00;;;;;;;-144.30;87.26;84625.19;5124870;28;20229;-57
2023/09/04 02:26:25;;;;;;;6.07;4.53;;;;;;;-144.30;86.37;84641.09;5126250;28;20200;-49
2023/09/04 02:29:42;;;;;;;4.95;4.65;;;;;;;-144.30;84.96;84583.47;5126102;28;20281;-51
2023/09/04 02:32:35;;;;;;;3.83;3.63;;;;;;;-144.30;83.36;84601.34;5125817;28;20222;-57
2023/09/04 02:42:20;;;;;;;4.00;3.80;;;;;;;-144.30;83.20;84597.38;5111435;28;20644;-57
2023/09/04 02:51:25;;;;;;;3.97;3.67;;;;;;;-144.30;80.23;84589.41;5108316;28;20199;-57
2023/09/04 03:00:30;;;;;;;;;;;;;;;;;;;;;
2023/09/04 03:06:27;;;;;;;3.65;3.40;;;;;;;-144.30;77.92;84563.59;5111553;28;20194;-52
2023/09/04 03:11:57;;;;;;;3.30;3.10;;;;;;;-144.30;77.60;84589.41;5111411;28;20490;-52
2023/09/04 03:14:39;;;;;;;4.50;3.22;;;;;;;-144.30;77.31;84565.56;5111694;28;20194;-57
2023/09/04 03:17:21;;;;;;;3.70;3.50;;;;;;;-144.30;77.17;84607.31;5110136;28;20255;-57
2023/09/04 03:20:09;;;;;;;4.57;3.58;;;;;;;-144.30;76.92;84593.41;5110509;28;20194;-57
2023/09/04 03:22:40;;;;;;;4.30;3.50;;;;;;;-144.30;76.74;84613.28;5108445;28;20218;-50
2023/09/04 03:25:08;;;;;;;4.07;3.80;;;;;;;-144.30;76.87;84585.44;5111479;28;20194;-57
2023/09/04 03:27:45;;;;;;;3.40;3.20;;;;;;;-144.30;76.97;84597.38;5110409;28;20198;-57
2023/09/04 03:30:18;;;;;;;4.47;4.00;;;;;;;-144.30;76.83;84299.25;5110018;28;20290;-52
2023/09/04 03:32:49;;;;;;;4.18;3.58;;;;;;;-144.30;76.80;84633.16;5110791;28;20293;-57
2023/09/04 03:35:26;;;;;;;3.80;3.50;;;;;;;-144.30;76.84;84597.38;5109194;28;20195;-57
2023/09/04 03:38:00;;;;;;;3.90;3.60;;;;;;;-144.30;77.24;84529.81;5109042;28;20198;-57
2023/09/04 03:40:42;;;;;;;3.90;3.70;;;;;;;-144.30;76.86;84581.47;5110954;28;20198;-56
2023/09/04 03:43:26;;;;;;;3.80;3.55;;;;;;;-144.30;77.16;84613.28;5110693;28;20190;-51
2023/09/04 03:46:08;;;;;;;3.83;3.53;;;;;;;-144.30;76.93;84583.47;5107031;28;20230;-57
2023/09/04 03:48:50;;;;;;;3.97;3.60;;;;;;;-144.30;76.80;84573.53;5108652;28;20191;-50
2023/09/04 03:51:56;;;;;;;3.88;3.58;;;;;;;-144.30;76.80;84577.50;5108865;28;20635;-50
2023/09/04 03:54:36;;;;;;;6.53;4.30;;;;;;;-144.30;76.50;84573.53;5109083;28;20705;-50
2023/09/04 03:57:25;;;;;;;3.92;3.60;;;;;;;-144.30;76.39;84585.44;5111094;28;20295;-51
2023/09/04 04:00:19;;;;;;;3.70;3.50;;;;;;;-144.30;76.54;84617.25;5110439;28;20229;-51
2023/09/04 04:03:10;;;;;;;4.72;3.50;;;;;;;-144.30;77.21;84605.31;5111337;28;20198;-56
2023/09/04 04:06:03;;;;;;;3.50;3.30;;;;;;;-144.30;78.19;84585.44;5111233;28;20709;-57
2023/09/04 04:08:49;;;;;;;3.55;3.35;;;;;;;-144.30;78.28;84585.44;5110646;28;20195;-50
2023/09/04 04:11:36;;;;;;;4.30;3.63;;;;;;;-144.30;78.73;84575.50;5095653;28;20705;-56
2023/09/04 04:18:01;;;;;;;6.32;4.45;;;;;;;-144.30;81.17;84629.19;5095249;28;20195;-56
2023/09/04 04:21:07;;;;;;;4.82;3.40;;;;;;;-144.30;83.13;84664.94;5109906;28;20195;-51
2023/09/04 04:24:09;;;;;;;6.50;4.53;;;;;;;-144.30;84.96;84692.78;5109526;28;20730;-51
2023/09/04 04:27:22;;;;;;;13.05;5.32;;;;;;;-144.30;87.51;84678.84;5110517;28;20220;-52
2023/09/04 04:29:52;;;;;;;14.05;10.07;;;;;;;-144.30;89.47;84770.28;5110463;28;20210;-51
2023/09/04 04:33:09;;;;;;;7.60;5.90;;;;;;;-144.30;90.51;84744.44;5109724;28;20629;-49
2023/09/04 04:45:12;;;;;;;12.73;6.65;;;;;;;-144.30;98.24;84865.69;5110201;28;20201;-57
2023/09/04 04:48:10;;;;;;;7.35;6.28;;;;;;;-144.30;99.36;84875.63;5110295;28;20285;-57
2023/09/04 04:51:14;;;;;;;11.88;8.68;;;;;;;-144.30;100.00;84907.44;5110223;28;20221;-57
2023/09/04 05:04:25;;;;;;;6.80;5.75;;;;;;;-144.30;100.00;84899.47;5103076;28;20194;-51
2023/09/04 05:07:29;;;;;;;9.52;6.70;;;;;;;-144.30;99.98;84935.25;5110039;28;20216;-57
2023/09/04 05:23:13;;;;;;;6.70;6.25;;;;;;;-144.30;100.00;84971.03;5106079;28;20222;-50
2023/09/04 05:25:55;;;;;;;8.90;8.10;;;;;;;-144.30;100.00;84939.25;5109225;28;20194;-57
2023/09/04 05:28:50;;;;;;;10.90;7.53;;;;;;;-144.30;100.00;84943.22;5090979;28;20211;-49
2023/09/04 05:31:41;;;;;;;8.60;6.18;;;;;;;-144.30;100.00;84967.06;5089615;28;20612;-57
2023/09/04 05:34:32;;;;;;;7.38;5.45;;;;;;;-144.30;100.00;84975.00;5096053;28;20222;-57
2023/09/04 05:37:17;;;;;;;6.32;5.75;;;;;;;-144.30;100.00;84961.09;5109139;28;20252;-50
2023/09/04 05:39:50;;;;;;;6.22;5.70;;;;;;;-144.30;100.00;84979.00;5093395;28;20210;-57
2023/09/04 05:42:24;;;;;;;6.40;5.80;;;;;;;-144.30;100.00;84998.88;5108971;28;20286;-57
2023/09/04 05:45:02;;;;;;;6.18;5.60;;;;;;;-144.30;100.00;84988.94;5109619;28;20289;-57
2023/09/04 05:47:38;;;;;;;6.35;5.85;;;;;;;-144.30;100.00;85020.72;5109671;28;20203;-51
2023/09/04 05:50:23;;;;;;;7.53;6.47;;;;;;;-144.30;100.00;85026.69;5109502;28;20190;-51
2023/09/04 05:53:28;;;;;;;;;;;;;;;;;;;;;
2023/09/04 05:59:35;;;;;;;10.18;9.23;;;;;;;-144.30;100.00;84979.00;5088114;28;20272;-59
2023/09/04 06:02:07;;;;;;;6.28;5.78;;;;;;;-144.30;100.00;84986.94;5088881;28;20279;-52
2023/09/04 06:04:39;;;;;;;7.22;6.47;;;;;;;-144.30;100.00;84967.06;5088898;28;20203;-57
2023/09/04 06:07:10;;;;;;;7.38;5.85;;;;;;;-144.30;100.00;84980.97;5089178;28;20592;-56
2023/09/04 06:09:40;;;;;;;11.13;6.90;;;;;;;-144.30;100.00;84951.16;5092273;28;20199;-57
2023/09/04 06:12:13;;;;;;;13.95;6.38;;;;;;;-144.30;100.00;84971.03;5091984;28;20567;-56
2023/09/04 06:14:43;;;;;;;15.73;7.15;;;;;;;-144.30;100.00;84996.88;5093283;28;20285;-52
2023/09/04 06:17:14;;;;;;;15.18;7.90;;;;;;;-144.30;100.00;85094.28;5092946;28;20231;-58
2023/09/04 06:19:43;;;;;;;10.52;7.30;;;;;;;-144.30;100.00;84961.09;5092758;28;20191;-51
2023/09/04 06:22:12;;;;;;;10.52;7.45;;;;;;;-144.30;100.00;84935.25;5092505;28;20714;-57
2023/09/04 06:24:46;;;;;;;9.75;6.97;;;;;;;-144.30;100.00;84937.25;5092496;28;20675;-48
2023/09/04 06:27:18;;;;;;;6.93;6.30;;;;;;;-144.30;100.00;84939.25;5092275;28;20743;-50
2023/09/04 06:29:45;;;;;;;7.70;6.88;;;;;;;-144.30;100.00;84899.47;5094124;28;20605;-51
2023/09/04 06:32:19;;;;;;;6.45;5.97;;;;;;;-144.30;100.00;84963.09;5092387;28;20298;-51
2023/09/04 06:34:51;;;;;;;7.22;6.63;;;;;;;-144.30;100.00;84955.13;5092348;28;20709;-50
2023/09/04 06:37:24;;;;;;;7.47;6.75;;;;;;;-144.30;100.00;84990.91;5092113;28;20203;-51
2023/09/04 06:39:57;;;;;;;7.75;7.05;;;;;;;-144.30;100.00;84982.97;5092017;28;20233;-58
2023/09/04 06:42:24;;;;;;;7.97;7.28;;;;;;;-144.30;100.00;84973.03;5092001;28;20191;-57
2023/09/04 06:44:59;;;;;;;7.88;7.18;;;;;;;-144.30;100.00;84947.19;5092132;28;20199;-52
2023/09/04 06:47:36;;;;;;;8.38;7.50;;;;;;;-144.30;100.00;84949.19;5092185;28;20199;-50
2023/09/04 06:50:08;;;;;;;7.28;6.78;;;;;;;-144.30;100.00;84883.59;5091927;28;20214;-51
2023/09/04 06:52:40;;;;;;;7.72;7.00;;;;;;;-144.30;100.00;84951.16;5110201;28;20263;-57
2023/09/04 06:55:14;;;;;;;10.98;7.53;;;;;;;-144.30;100.00;84895.50;5102857;28;20203;-57
2023/09/04 06:57:46;;;;;;;9.25;6.65;;;;;;;-144.30;100.00;85308.97;5091900;28;20671;-57
2023/09/04 07:00:16;;;;;;;8.02;7.32;;;;;;;-144.30;100.00;84961.09;5091560;28;20214;-58
2023/09/04 07:02:48;;;;;;;8.88;7.68;;;;;;;-144.30;100.00;84931.28;5091805;28;20192;-51
2023/09/04 07:05:17;;;;;;;7.60;7.10;;;;;;;-144.30;100.00;84925.31;5091924;28;20199;-51
2023/09/04 07:07:49;;;;;;;7.75;7.07;;;;;;;-144.30;100.00;84931.28;5091846;28;20586;-51
2023/09/04 07:10:21;;;;;;;7.18;6.68;;;;;;;-144.30;100.00;84905.44;5099016;28;20207;-57
2023/09/04 07:12:53;;;;;;;10.02;8.40;;;;;;;-144.30;100.00;84905.44;5097046;28;20309;-58
2023/09/04 07:15:22;;;;;;;10.60;8.63;;;;;;;-144.30;100.00;84901.47;5091578;28;20192;-51
2023/09/04 07:17:57;;;;;;;10.63;8.70;;;;;;;-144.30;100.00;84893.53;5093124;28;20203;-57
2023/09/04 07:20:28;;;;;;;12.10;8.88;;;;;;;-144.30;100.00;84851.78;5091461;28;20786;-51
2023/09/04 07:23:01;;;;;;;8.70;7.90;;;;;;;-144.30;100.00;84847.81;5090829;28;20314;-58
2023/09/04 07:25:32;;;;;;;7.93;7.18;;;;;;;-144.30;100.00;84849.78;5092326;28;20392;-58
2023/09/04 07:28:00;;;;;;;9.35;8.35;;;;;;;-144.30;100.00;84855.75;5091039;28;20202;-51
2023/09/04 07:30:29;;;;;;;9.40;8.27;;;;;;;-144.30;100.00;84818.00;5108198;28;20259;-51
2023/09/04 07:33:04;;;;;;;8.50;7.70;;;;;;;-144.30;100.00;84831.91;5111578;28;20226;-51
2023/09/04 07:35:37;;;;;;;12.40;7.57;;;;;;;-144.30;99.76;84869.66;5103608;28;20195;-49
2023/09/04 07:38:07;;;;;;;7.38;6.88;;;;;;;-144.30;99.37;84865.69;5102747;28;20202;-51
2023/09/04 07:40:37;;;;;;;8.65;7.90;;;;;;;-144.30;98.89;84845.81;5111963;28;20736;-50
2023/09/04 07:43:09;;;;;;;8.85;7.13;;;;;;;-144.30;98.14;84794.13;5107790;28;20198;-51
2023/09/04 07:45:40;;;;;;;11.63;7.82;;;;;;;-144.30;98.83;84849.78;5105544;28;20202;-52
2023/09/04 07:48:12;;;;;;;9.13;7.93;;;;;;;-144.30;99.49;84827.94;5090833;28;20203;-50
2023/09/04 07:50:40;;;;;;;11.38;9.30;;;;;;;-144.30;99.21;84861.72;5091092;28;20195;-51
2023/09/04 07:53:13;;;;;;;10.77;9.88;;;;;;;-144.30;100.00;84875.63;5090841;28;20220;-51
2023/09/04 07:55:44;;;;;;;11.00;9.27;;;;;;;-144.30;100.00;84859.72;5090921;28;20195;-57
2023/09/04 07:58:16;;;;;;;8.40;7.70;;;;;;;-144.30;100.00;84831.91;5090774;28;20199;-50
2023/09/04 08:00:50;;;;;;;6.97;6.32;;;;;;;-144.30;100.00;84861.72;5089227;28;20591;-51
2023/09/04 08:03:24;;;;;;;7.22;6.53;;;;;;;-144.30;99.08;84859.72;5090391;28;20191;-51
2023/09/04 08:05:56;;;;;;;6.65;6.05;;;;;;;-144.30;98.71;84871.66;5090692;28;20639;-58
2023/09/04 08:08:31;;;;;;;6.80;6.00;;;;;;;-144.30;98.31;84819.97;5090269;28;20213;-51
2023/09/04 08:11:00;;;;;;;5.47;5.07;;;;;;;-144.30;96.53;84859.72;5101039;28;20198;-51
2023/09/04 08:13:30;;;;;;;6.05;5.65;;;;;;;-144.30;97.40;84867.69;5108335;28;20218;-50
2023/09/04 08:15:58;;;;;;;6.00;5.47;;;;;;;-144.30;97.12;84865.69;5107514;28;20286;-51
2023/09/04 08:18:31;;;;;;;6.72;6.22;;;;;;;-144.30;97.09;84873.66;5110430;28;20636;-51
2023/09/04 08:21:03;;;;;;;7.50;6.85;;;;;;;-144.30;97.12;84847.81;5107918;28;20275;-58
2023/09/04 08:23:32;;;;;;;6.30;5.80;;;;;;;-144.30;96.09;84857.75;5109754;28;20214;-57
2023/09/04 08:26:03;;;;;;;6.78;5.47;;;;;;;-144.30;96.12;84873.66;5107511;28;20190;-57
2023/09/04 08:28:34;;;;;;;5.60;5.10;;;;;;;-144.30;95.57;84841.84;5109257;28;20733;-57
2023/09/04 08:31:04;;;;;;;7.53;6.45;;;;;;;-144.30;96.03;84833.88;5104296;28;20206;-57
2023/09/04 08:33:39;;;;;;;7.75;6.20;;;;;;;-144.30;96.13;84835.88;5109842;28;20219;-58
2023/09/04 08:36:10;;;;;;;7.05;5.95;;;;;;;-144.30;93.45;84808.06;5109615;28;20210;-57
2023/09/04 08:38:41;;;;;;;5.85;5.45;;;;;;;-144.30;95.25;84867.69;5110325;28;20537;-58
2023/09/04 08:41:14;;;;;;;5.80;5.20;;;;;;;-144.30;95.86;84855.75;5109926;28;20689;-58
2023/09/04 08:43:51;;;;;;;4.93;4.53;;;;;;;-144.30;95.98;84883.59;5108464;28;20229;-51
2023/09/04 08:46:20;;;;;;;5.25;4.90;;;;;;;-144.30;96.87;84577.50;5104161;28;20202;-58
2023/09/04 08:48:58;;;;;;;4.95;4.50;;;;;;;-144.30;95.84;84891.53;5110070;28;20416;-57
2023/09/04 08:51:29;;;;;;;5.38;4.88;;;;;;;-144.30;96.63;84905.44;5108421;28;20194;-57
2023/09/04 08:54:05;;;;;;;6.68;6.18;;;;;;;-144.30;97.12;84891.53;5106723;28;20226;-58
2023/09/04 08:56:36;;;;;;;6.07;5.70;;;;;;;-144.30;98.14;84897.50;5109314;28;20195;-57
2023/09/04 08:59:10;;;;;;;6.07;5.57;;;;;;;-144.30;97.34;84903.47;5108122;28;20877;-58
2023/09/04 09:01:43;;;;;;;5.60;5.20;;;;;;;-144.30;97.75;84891.53;5105714;28;20197;-58
2023/09/04 09:04:19;;;;;;;5.05;4.75;;;;;;;-144.30;97.38;84851.78;5109421;28;20194;-57
2023/09/04 09:06:52;;;;;;;6.50;5.93;;;;;;;-144.30;96.49;84869.66;5109540;28;20685;-57
2023/09/04 09:09:25;;;;;;;6.03;5.53;;;;;;;-144.30;97.31;84871.66;5109057;28;20723;-51
2023/09/04 09:11:57;;;;;;;6.60;5.85;;;;;;;-144.30;97.41;84853.78;5109849;28;20191;-51
2023/09/04 09:14:28;;;;;;;5.70;5.40;;;;;;;-144.30;96.42;84871.66;5102858;28;20222;-50
2023/09/04 09:17:10;;;;;;;6.63;5.72;;;;;;;-144.30;96.50;84879.59;5108516;28;20199;-51
2023/09/04 09:19:48;;;;;;;10.30;5.05;;;;;;;-144.30;96.33;84887.56;5107913;28;20202;-51
2023/09/04 09:22:21;;;;;;;7.30;5.07;;;;;;;-144.30;96.86;84875.63;5109476;28;20284;-57
2023/09/04 09:24:56;;;;;;;8.65;5.40;;;;;;;-144.30;97.69;84915.38;5100618;28;20199;-58
2023/09/04 09:27:35;;;;;;;6.30;5.72;;;;;;;-144.30;97.59;84905.44;5089582;28;20248;-50
2023/09/04 09:30:08;;;;;;;5.55;5.18;;;;;;;-144.30;98.22;84887.56;5088776;28;20730;-59
2023/09/04 09:32:42;;;;;;;5.85;5.40;;;;;;;-144.30;97.66;84883.59;5089336;28;20286;-52
2023/09/04 09:35:24;;;;;;;6.63;5.97;;;;;;;-144.30;97.73;84933.28;5088922;28;20372;-49
2023/09/04 09:38:01;;;;;;;6.57;5.97;;;;;;;-144.30;98.55;84881.59;5099726;28;20191;-52
2023/09/04 09:40:34;;;;;;;6.45;5.95;;;;;;;-144.30;98.48;84889.53;5107230;28;20285;-57
2023/09/04 09:43:08;;;;;;;7.25;5.97;;;;;;;-144.30;98.12;84877.63;5109435;28;20195;-51
2023/09/04 09:45:40;;;;;;;5.63;5.32;;;;;;;-144.30;98.16;84859.72;5112129;28;20707;-49
2023/09/04 09:48:13;;;;;;;5.80;5.40;;;;;;;-144.30;97.52;84859.72;5111030;28;20274;-50
2023/09/04 09:50:43;;;;;;;6.15;5.63;;;;;;;-144.30;96.13;84883.59;5107057;28;20194;-48
2023/09/04 09:53:16;;;;;;;6.07;5.60;;;;;;;-144.30;95.99;84881.59;5105145;28;20204;-50
2023/09/04 09:55:51;;;;;;;6.07;5.47;;;;;;;-144.30;96.61;84861.72;5113303;28;20257;-58
2023/09/04 09:58:25;;;;;;;5.95;5.45;;;;;;;-144.30;96.20;84923.34;5113468;28;20215;-57
2023/09/04 10:00:55;;;;;;;11.65;6.18;;;;;;;-144.30;96.88;84895.50;5113739;28;20201;-49
2023/09/04 10:03:28;;;;;;;9.02;7.15;;;;;;;-144.30;97.76;84879.59;5113831;28;20201;-51
2023/09/04 10:06:05;;;;;;;7.90;7.30;;;;;;;-144.30;97.92;84927.31;5113398;28;20290;-50
2023/09/04 10:08:45;;;;;;;7.35;6.68;;;;;;;-144.30;96.85;84893.53;5113533;28;20198;-50
2023/09/04 10:11:17;;;;;;;7.32;6.72;;;;;;;-144.30;96.72;84893.53;5112933;28;20197;-57
2023/09/04 10:13:57;;;;;;;7.47;6.65;;;;;;;-144.30;96.25;84901.47;5111659;28;20750;-56
2023/09/04 10:16:36;;;;;;;6.45;6.05;;;;;;;-144.30;96.79;84889.53;5113131;28;20230;-52
2023/09/04 10:19:07;;;;;;;5.78;5.40;;;;;;;-144.30;95.99;84859.72;5113281;28;20234;-50
2023/09/04 10:21:43;;;;;;;6.72;6.22;;;;;;;-144.30;96.76;84905.44;5112933;28;20903;-52
2023/09/04 10:24:16;;;;;;;7.22;6.68;;;;;;;-144.30;96.89;84937.25;5112907;28;20205;-51
2023/09/04 10:26:56;;;;;;;7.47;6.78;;;;;;;-144.30;97.27;84941.22;5112934;28;20194;-50
2023/09/04 10:29:31;;;;;;;8.98;8.18;;;;;;;-144.30;97.75;84957.13;5112464;28;20198;-51
2023/09/04 10:32:02;;;;;;;8.90;7.78;;;;;;;-144.30;97.26;84927.31;5112594;28;20194;-51
2023/09/04 10:34:33;;;;;;;7.07;6.57;;;;;;;-144.30;97.32;84951.16;5112790;28;20673;-57
2023/09/04 10:37:03;;;;;;;11.85;7.55;;;;;;;-144.30;96.83;84982.97;5112400;28;20248;-51
2023/09/04 10:39:34;;;;;;;8.45;7.47;;;;;;;-144.30;96.77;84963.09;5112791;28;20705;-49
2023/09/04 10:42:08;;;;;;;7.10;6.53;;;;;;;-144.30;97.32;84982.97;5112592;28;20194;-50
2023/09/04 10:44:49;;;;;;;7.47;6.57;;;;;;;-144.30;96.96;84998.88;5112789;28;20277;-52
2023/09/04 10:47:21;;;;;;;7.20;6.60;;;;;;;-144.30;97.99;84998.88;5102956;28;20663;-57
2023/09/04 10:49:57;;;;;;;7.15;6.38;;;;;;;-144.30;97.70;84975.00;5102703;28;20583;-57
2023/09/04 10:52:43;;;;;;;6.97;6.57;;;;;;;-144.30;97.41;84996.88;5092107;28;20779;-57
2023/09/04 10:55:19;;;;;;;7.55;6.82;;;;;;;-144.30;97.67;84992.91;5091273;28;20215;-58
2023/09/04 10:58:07;;;;;;;6.78;6.30;;;;;;;-144.30;97.77;84986.94;5091875;28;20195;-51
2023/09/04 11:00:38;;;;;;;7.13;6.60;;;;;;;-144.30;97.58;84977.00;5091815;28;20199;-50
2023/09/04 11:03:20;;;;;;;7.45;6.95;;;;;;;-144.30;97.87;84951.16;5091624;28;20191;-51
2023/09/04 11:06:12;;;;;;;7.47;6.88;;;;;;;-144.30;98.44;85026.69;5091925;28;20655;-57
2023/09/04 11:08:53;;;;;;;7.25;6.75;;;;;;;-144.30;99.57;84992.91;5091789;28;20253;-58
2023/09/04 11:11:30;;;;;;;8.32;7.43;;;;;;;-144.30;99.38;85028.69;5091570;28;20230;-51
2023/09/04 11:13:59;;;;;;;7.90;7.20;;;;;;;-144.30;99.64;85046.56;5091566;28;20234;-51
2023/09/04 11:16:28;;;;;;;7.88;7.22;;;;;;;-144.30;99.73;85006.81;5091710;28;20210;-51
2023/09/04 11:19:11;;;;;;;8.30;7.40;;;;;;;-144.30;99.83;85060.50;5091607;28;20222;-51
2023/09/04 11:21:44;;;;;;;7.70;7.13;;;;;;;-144.30;100.00;85044.59;5091171;28;20199;-52
2023/09/04 11:24:20;;;;;;;7.72;7.22;;;;;;;-144.30;100.00;85046.56;5091390;28;20199;-51
2023/09/04 11:26:48;;;;;;;7.85;7.32;;;;;;;-144.30;100.00;85511.75;5090757;28;20751;-49
2023/09/04 11:29:23;;;;;;;7.55;7.05;;;;;;;-144.30;100.00;85058.50;5091013;28;20214;-48
2023/09/04 11:31:56;;;;;;;8.15;7.55;;;;;;;-144.30;100.00;85094.28;5091359;28;20202;-51
2023/09/04 11:34:27;;;;;;;7.68;7.18;;;;;;;-144.30;100.00;85118.13;5090059;28;20219;-51
2023/09/04 11:36:57;;;;;;;7.63;7.13;;;;;;;-144.30;100.00;85122.09;5091433;28;20191;-58
2023/09/04 11:39:31;;;;;;;7.78;6.82;;;;;;;-144.30;100.00;85084.34;5091340;28;20199;-58
2023/09/04 11:42:03;;;;;;;7.03;6.53;;;;;;;-144.30;100.00;84963.09;5091119;28;20203;-58
2023/09/04 11:44:33;;;;;;;6.97;6.50;;;;;;;-144.30;100.00;85068.44;5090370;28;20290;-57
2023/09/04 11:47:02;;;;;;;7.45;6.85;;;;;;;-144.30;100.00;85140.00;5100444;28;20199;-57
2023/09/04 11:49:33;;;;;;;7.68;7.07;;;;;;;-144.30;100.00;85130.06;5090749;28;20195;-57
2023/09/04 11:52:04;;;;;;;7.38;6.88;;;;;;;-144.30;100.00;85102.22;5090417;28;20195;-50
2023/09/04 11:54:43;;;;;;;7.57;6.87;;;;;;;-144.30;100.00;85126.09;5090754;28;20226;-57
2023/09/04 11:57:16;;;;;;;7.43;6.93;;;;;;;-144.30;100.00;85092.28;5090481;28;20207;-57
2023/09/04 11:59:45;;;;;;;6.97;6.50;;;;;;;-144.30;100.00;85155.91;5089542;28;20195;-58
2023/09/04 12:02:17;;;;;;;6.83;6.30;;;;;;;-144.30;100.00;85134.03;5090472;28;20224;-58
2023/09/04 12:04:56;;;;;;;8.20;7.50;;;;;;;-144.30;100.00;85145.97;5090529;28;20192;-52
2023/09/04 12:07:26;;;;;;;7.57;6.70;;;;;;;-144.30;100.00;85163.84;5089838;28;20590;-59
2023/09/04 12:10:03;;;;;;;7.97;7.23;;;;;;;-144.30;100.00;85197.66;5089950;28;20672;-57
2023/09/04 12:12:35;;;;;;;7.13;6.63;;;;;;;-144.30;100.00;85203.59;5090314;28;20191;-58
2023/09/04 12:15:07;;;;;;;8.57;7.80;;;;;;;-144.30;100.00;85205.59;5090062;28;20299;-58
2023/09/04 12:17:39;;;;;;;8.90;8.20;;;;;;;-144.30;100.00;85217.53;5090413;28;20211;-57
2023/09/04 12:20:10;;;;;;;8.60;7.90;;;;;;;-144.30;100.00;85213.53;5090112;28;20583;-51
2023/09/04 12:22:41;;;;;;;8.03;7.23;;;;;;;-144.30;100.00;85205.59;5090099;28;20286;-50
2023/09/04 12:25:14;;;;;;;8.37;7.67;;;;;;;-144.30;100.00;85175.78;5089943;28;20237;-52
2023/09/04 12:27:43;;;;;;;8.03;7.43;;;;;;;-144.30;100.00;85169.81;5090046;28;20191;-52
2023/09/04 12:30:14;;;;;;;8.33;7.73;;;;;;;-144.30;100.00;85187.69;5089909;28;20252;-51
2023/09/04 12:32:45;;;;;;;7.60;7.07;;;;;;;-144.30;100.00;85185.72;5090044;28;20223;-51
2023/09/04 12:35:18;;;;;;;8.43;7.70;;;;;;;-144.30;100.00;85173.78;5089737;28;20219;-57
2023/09/04 12:37:47;;;;;;;8.07;7.37;;;;;;;-144.30;100.00;85201.63;5089927;28;20286;-57
2023/09/04 12:40:24;;;;;;;7.33;6.70;;;;;;;-144.30;100.00;85231.44;5089004;28;20199;-57
2023/09/04 12:42:55;;;;;;;8.00;7.40;;;;;;;-144.30;100.00;85213.53;5089863;28;20666;-58
2023/09/04 12:45:28;;;;;;;7.23;6.73;;;;;;;-144.30;100.00;85181.75;5089919;28;20191;-58
2023/09/04 12:48:01;;;;;;;8.67;7.97;;;;;;;-144.30;100.00;85207.59;5088872;28;20209;-57
2023/09/04 12:50:36;;;;;;;8.40;7.80;;;;;;;-144.30;100.00;85161.88;5091905;28;20694;-57
2023/09/04 12:53:06;;;;;;;8.03;7.33;;;;;;;-144.30;100.00;85175.78;5104435;28;20288;-57
2023/09/04 12:55:42;;;;;;;7.93;7.23;;;;;;;-144.30;100.00;85193.66;5109826;28;20279;-51
2023/09/04 12:58:13;;;;;;;7.10;6.60;;;;;;;-144.30;100.00;85185.72;5098142;28;20233;-50
2023/09/04 13:00:42;;;;;;;7.53;6.80;;;;;;;-144.30;100.00;85195.66;5109659;28;20218;-51
2023/09/04 13:03:15;;;;;;;7.90;7.03;;;;;;;-144.30;100.00;85197.66;5109281;28;20204;-51
2023/09/04 13:05:45;;;;;;;7.45;6.80;;;;;;;-144.30;100.00;85183.72;5109673;28;20591;-50
2023/09/04 13:08:17;;;;;;;7.00;6.50;;;;;;;-144.30;100.00;85159.88;5108862;28;20221;-58
2023/09/04 13:10:51;;;;;;;8.10;7.30;;;;;;;-144.30;100.00;85171.81;5109651;28;20198;-57
2023/09/04 13:13:23;;;;;;;8.43;6.53;;;;;;;-144.30;100.00;85136.03;5109292;28;20198;-58
2023/09/04 13:15:55;;;;;;;7.90;7.30;;;;;;;-144.30;100.00;85165.84;5109337;28;20298;-57
2023/09/04 13:18:25;;;;;;;7.10;6.60;;;;;;;-144.30;100.00;85108.19;5109527;28;20233;-57
2023/09/04 13:20:56;;;;;;;7.45;6.85;;;;;;;-144.30;100.00;85094.28;5109936;28;20194;-58
2023/09/04 13:23:29;;;;;;;7.20;6.78;;;;;;;-144.30;100.00;85114.16;5108745;28;20272;-50
2023/09/04 13:26:00;;;;;;;6.93;6.30;;;;;;;-144.30;100.00;85110.19;5108231;28;20194;-57
2023/09/04 13:28:39;;;;;;;6.80;6.40;;;;;;;-144.30;100.00;85120.13;5109506;28;20202;-60
2023/09/04 13:31:15;;;;;;;6.80;6.20;;;;;;;-144.30;100.00;85090.31;5109810;28;20198;-51
2023/09/04 13:33:50;;;;;;;6.70;6.20;;;;;;;-144.30;100.00;85126.09;5109607;28;20735;-50
2023/09/04 13:36:21;;;;;;;7.28;6.78;;;;;;;-144.30;100.00;85134.03;5108415;28;20690;-52
2023/09/04 13:38:56;;;;;;;7.07;6.57;;;;;;;-144.30;100.00;85042.59;5108168;28;20303;-51
2023/09/04 13:41:30;;;;;;;6.20;5.75;;;;;;;-144.30;99.13;85046.56;5108376;28;20194;-52
2023/09/04 13:44:08;;;;;;;5.57;5.10;;;;;;;-144.30;98.04;85078.38;5109288;28;20671;-51
2023/09/04 13:46:38;;;;;;;5.88;5.38;;;;;;;-144.30;97.46;85046.56;5101399;28;20226;-50
2023/09/04 13:49:10;;;;;;;5.13;4.82;;;;;;;-144.30;96.62;85062.47;5088698;28;20286;-51
2023/09/04 13:51:42;;;;;;;5.93;5.43;;;;;;;-144.30;97.53;85058.50;5094822;28;20208;-51
2023/09/04 13:54:11;;;;;;;5.22;4.93;;;;;;;-144.30;97.47;85046.56;5109228;28;20195;-51
2023/09/04 13:56:44;;;;;;;6.05;5.65;;;;;;;-144.30;97.52;85074.41;5109263;28;20222;-50
2023/09/04 13:59:13;;;;;;;6.07;5.68;;;;;;;-144.30;96.68;85018.75;5101390;28;20198;-58
2023/09/04 14:01:46;;;;;;;5.00;4.60;;;;;;;-144.30;96.38;85018.75;5106462;28;20639;-52
2023/09/04 14:04:17;;;;;;;4.95;4.65;;;;;;;-144.30;95.84;85042.59;5108054;28;20202;-51
2023/09/04 14:06:49;;;;;;;5.68;5.28;;;;;;;-144.30;95.46;85046.56;5108727;28;20269;-51
2023/09/04 14:09:20;;;;;;;5.15;4.82;;;;;;;-144.30;95.13;85008.81;5107390;28;20206;-51
2023/09/04 14:11:50;;;;;;;4.90;4.60;;;;;;;-144.30;95.06;85024.72;5107314;28;20195;-50
2023/09/04 14:14:21;;;;;;;4.32;4.13;;;;;;;-144.30;94.12;85014.78;5107472;28;20199;-52
2023/09/04 14:16:51;;;;;;;4.40;4.10;;;;;;;-144.30;94.38;85042.59;5108739;28;20218;-50
2023/09/04 14:19:20;;;;;;;4.60;4.30;;;;;;;-144.30;94.50;85080.38;5108232;28;20203;-51
2023/09/04 14:21:51;;;;;;;4.30;4.10;;;;;;;-144.30;94.78;85036.63;5108484;28;20195;-51
2023/09/04 14:24:22;;;;;;;5.28;4.25;;;;;;;-144.30;95.11;85098.25;5108002;28;20195;-51
2023/09/04 14:26:52;;;;;;;4.75;4.45;;;;;;;-144.30;94.73;85034.66;5109278;28;20199;-51
2023/09/04 14:29:23;;;;;;;5.47;5.05;;;;;;;-144.30;94.73;85064.47;5109539;28;20715;-51
2023/09/04 14:31:56;;;;;;;4.47;4.18;;;;;;;-144.30;94.16;85044.59;5112603;28;20252;-51
2023/09/04 14:34:24;;;;;;;4.63;4.35;;;;;;;-144.30;94.21;84935.25;5111238;28;20191;-56